Time;durP1;ratioP1;P1;durP2;ratioP2;P2;SDS_P1;SDS_P2;PMS_P1;PMS_P2;Temp;Humidity;BMP_temperature;BMP_pressure;BME280_temperature;BME280_humidity;BME280_pressure;Samples;Min_cycle;Max_cycle;Signal;HPM_P1;HPM_P2
2022/01/07 00:02:15;;;;;;;6.57;2.97;;;5.00;99.90;;;;;;5080148;28;20028;-64
2022/01/07 00:04:41;;;;;;;3.58;2.35;;;5.00;99.90;;;;;;5079447;28;20037;-62
2022/01/07 00:07:08;;;;;;;9.70;3.17;;;5.00;99.90;;;;;;5080259;28;20025;-62
2022/01/07 00:09:36;;;;;;;7.20;3.03;;;5.00;99.90;;;;;;5079306;28;20035;-62
2022/01/07 00:12:03;;;;;;;9.57;2.75;;;5.10;99.90;;;;;;5079300;28;20118;-62
2022/01/07 00:14:29;;;;;;;5.22;2.60;;;5.10;99.90;;;;;;5079891;28;20051;-61
2022/01/07 00:16:55;;;;;;;7.70;2.72;;;5.10;99.90;;;;;;5079925;28;20025;-63
2022/01/07 00:19:21;;;;;;;6.60;3.13;;;5.10;99.90;;;;;;5062566;28;20093;-61
2022/01/07 00:21:47;;;;;;;7.65;2.75;;;5.10;99.90;;;;;;5080126;28;20032;-61
2022/01/07 00:24:13;;;;;;;7.70;2.72;;;5.10;99.90;;;;;;5078942;28;20033;-63
2022/01/07 00:26:39;;;;;;;7.30;2.63;;;5.10;99.90;;;;;;5079723;28;20032;-61
2022/01/07 00:29:04;;;;;;;9.48;3.00;;;5.10;99.90;;;;;;5079714;28;20359;-60
2022/01/07 00:31:30;;;;;;;8.43;2.35;;;5.10;99.90;;;;;;5078857;28;20032;-61
2022/01/07 00:33:56;;;;;;;8.25;2.65;;;5.00;99.90;;;;;;5079662;28;20315;-60
2022/01/07 00:36:22;;;;;;;4.57;2.53;;;5.00;99.90;;;;;;5079419;28;20059;-62
2022/01/07 00:38:51;;;;;;;8.70;2.22;;;5.00;99.90;;;;;;5062730;28;20102;-63
2022/01/07 00:41:17;;;;;;;8.15;2.70;;;5.00;99.90;;;;;;5078795;28;20028;-63
2022/01/07 00:43:42;;;;;;;6.03;2.45;;;5.00;99.90;;;;;;5079405;28;20035;-61
2022/01/07 00:46:08;;;;;;;7.80;2.55;;;4.90;99.90;;;;;;5079309;28;20025;-61
2022/01/07 00:48:34;;;;;;;5.97;2.17;;;4.90;99.90;;;;;;5079319;28;20032;-61
2022/01/07 00:51:00;;;;;;;4.72;1.90;;;4.90;99.90;;;;;;5079291;28;20380;-61
2022/01/07 00:53:26;;;;;;;7.13;2.22;;;4.90;99.90;;;;;;5079485;28;20044;-61
2022/01/07 00:55:52;;;;;;;8.68;2.60;;;4.90;99.90;;;;;;5079136;28;20297;-63
2022/01/07 00:58:17;;;;;;;4.07;1.95;;;4.90;99.90;;;;;;5079082;28;20071;-61
2022/01/07 01:00:43;;;;;;;5.55;1.98;;;4.90;99.90;;;;;;5079099;28;20032;-62
2022/01/07 01:03:09;;;;;;;6.28;2.20;;;4.90;99.90;;;;;;5077112;28;20036;-63
2022/01/07 01:05:36;;;;;;;5.70;2.15;;;4.90;99.90;;;;;;5078046;28;20029;-63
2022/01/07 01:08:03;;;;;;;6.88;2.25;;;4.90;99.90;;;;;;5078943;28;20103;-61
2022/01/07 01:10:28;;;;;;;9.48;2.15;;;4.90;99.90;;;;;;5078981;28;20029;-62
2022/01/07 01:12:55;;;;;;;7.63;1.95;;;4.80;99.90;;;;;;5078904;28;20051;-63
2022/01/07 01:15:25;;;;;;;8.23;2.85;;;4.90;99.90;;;;;;5078180;28;20407;-61
2022/01/07 01:17:53;;;;;;;6.22;1.90;;;4.80;99.90;;;;;;5079164;28;20354;-61
2022/01/07 01:20:20;;;;;;;6.07;2.17;;;4.80;99.90;;;;;;5078718;28;20042;-61
2022/01/07 01:22:47;;;;;;;6.53;2.20;;;4.70;99.90;;;;;;5079015;28;20132;-61
2022/01/07 01:25:13;;;;;;;8.38;2.50;;;4.70;99.90;;;;;;5078725;28;20041;-61
2022/01/07 01:27:40;;;;;;;7.57;2.60;;;4.60;99.90;;;;;;5078600;28;20053;-62
2022/01/07 01:30:10;;;;;;;10.85;3.15;;;4.60;99.90;;;;;;5077818;28;20107;-62
2022/01/07 01:32:37;;;;;;;8.25;3.08;;;4.50;99.90;;;;;;5078556;28;20044;-62
2022/01/07 01:35:05;;;;;;;8.90;2.70;;;4.50;99.90;;;;;;5078479;28;20035;-62
2022/01/07 01:37:31;;;;;;;9.73;2.95;;;4.30;99.90;;;;;;5078195;28;20396;-61
2022/01/07 01:39:57;;;;;;;7.57;2.67;;;4.30;99.90;;;;;;5078491;28;20136;-61
2022/01/07 01:42:24;;;;;;;10.52;3.25;;;4.30;99.90;;;;;;5077541;28;20044;-61
2022/01/07 01:44:49;;;;;;;8.85;3.65;;;4.30;99.90;;;;;;5077496;28;20079;-61
2022/01/07 01:47:15;;;;;;;8.55;3.30;;;4.20;99.90;;;;;;5078223;28;20039;-61
2022/01/07 01:49:41;;;;;;;9.25;3.20;;;4.20;99.90;;;;;;5078188;28;20029;-62
2022/01/07 01:52:07;;;;;;;8.70;3.75;;;4.20;99.90;;;;;;5078072;28;20033;-62
2022/01/07 01:54:33;;;;;;;7.38;3.63;;;4.20;99.90;;;;;;5077572;28;20043;-63
2022/01/07 01:56:59;;;;;;;8.43;3.47;;;4.20;99.90;;;;;;5077897;28;20384;-62
2022/01/07 01:59:28;;;;;;;7.93;3.60;;;4.20;99.90;;;;;;5078234;28;20039;-62
2022/01/07 02:01:55;;;;;;;8.50;3.72;;;4.20;99.90;;;;;;5077927;28;20032;-61
2022/01/07 02:04:21;;;;;;;5.97;3.45;;;4.10;99.90;;;;;;5060495;28;20029;-63
2022/01/07 02:06:48;;;;;;;8.45;3.83;;;4.10;99.90;;;;;;5077844;28;20029;-60
2022/01/07 02:09:14;;;;;;;8.60;3.78;;;4.00;99.90;;;;;;5077739;28;20025;-60
2022/01/07 02:11:40;;;;;;;10.48;4.18;;;4.00;99.90;;;;;;5077934;28;20024;-61
2022/01/07 02:14:06;;;;;;;11.95;4.75;;;3.90;99.90;;;;;;5077439;28;20107;-61
2022/01/07 02:16:32;;;;;;;8.77;4.03;;;3.90;99.90;;;;;;5077888;28;20055;-60
2022/01/07 02:18:58;;;;;;;8.77;4.57;;;3.80;99.90;;;;;;5076820;28;20028;-61
2022/01/07 02:21:27;;;;;;;8.48;4.60;;;3.80;99.90;;;;;;5077534;28;20024;-60
2022/01/07 02:23:53;;;;;;;8.38;4.47;;;3.80;99.90;;;;;;5077365;28;20021;-60
2022/01/07 02:26:19;;;;;;;9.07;4.30;;;3.80;99.90;;;;;;5077390;28;20029;-62
2022/01/07 02:28:47;;;;;;;10.73;4.88;;;3.80;99.90;;;;;;5077429;28;20024;-59
2022/01/07 02:31:13;;;;;;;7.60;4.55;;;3.70;99.90;;;;;;5077344;28;20036;-60
2022/01/07 02:33:39;;;;;;;10.15;4.35;;;3.70;99.90;;;;;;5077243;28;20021;-59
2022/01/07 02:36:09;;;;;;;5.45;4.13;;;3.70;99.90;;;;;;5078941;28;20033;-59
2022/01/07 02:38:36;;;;;;;10.45;4.95;;;3.70;99.90;;;;;;5077113;28;20048;-60
2022/01/07 02:41:03;;;;;;;7.53;4.40;;;3.70;99.90;;;;;;5077204;28;20324;-60
2022/01/07 02:43:29;;;;;;;10.30;4.63;;;3.60;99.90;;;;;;5077063;28;20085;-60
2022/01/07 02:45:55;;;;;;;11.05;5.18;;;3.70;99.90;;;;;;5076456;28;20396;-60
2022/01/07 02:48:20;;;;;;;8.27;4.70;;;3.70;99.90;;;;;;5076663;28;20033;-60
2022/01/07 02:50:46;;;;;;;8.77;4.85;;;3.70;99.90;;;;;;5077488;28;20033;-60
2022/01/07 02:53:12;;;;;;;10.05;5.15;;;3.70;99.90;;;;;;5076290;28;20025;-60
2022/01/07 02:55:39;;;;;;;7.93;5.13;;;3.70;99.90;;;;;;5076362;28;20024;-61
2022/01/07 02:58:06;;;;;;;8.18;5.50;;;3.70;99.90;;;;;;5076984;28;20036;-60
2022/01/07 03:00:32;;;;;;;8.02;5.13;;;3.70;99.90;;;;;;5076261;28;20184;-59
2022/01/07 03:03:00;;;;;;;8.00;5.45;;;3.80;99.90;;;;;;5076815;28;20037;-61
2022/01/07 03:05:26;;;;;;;7.57;5.68;;;3.80;99.90;;;;;;5077233;28;20103;-60
2022/01/07 03:07:52;;;;;;;8.95;5.35;;;3.90;99.90;;;;;;5076903;28;20346;-59
2022/01/07 03:10:27;;;;;;;9.15;6.00;;;3.80;99.90;;;;;;5076210;28;20037;-60
2022/01/07 03:12:54;;;;;;;9.70;5.65;;;3.80;99.90;;;;;;5077221;28;20107;-59
2022/01/07 03:15:20;;;;;;;7.07;5.72;;;3.80;99.90;;;;;;5076155;28;20032;-60
2022/01/07 03:17:46;;;;;;;6.28;5.20;;;3.90;99.90;;;;;;5076825;28;20304;-60
2022/01/07 03:20:15;;;;;;;7.93;5.57;;;3.90;99.90;;;;;;5076891;28;20323;-60
2022/01/07 03:22:42;;;;;;;7.90;5.30;;;3.90;99.90;;;;;;5075951;28;20094;-60
2022/01/07 03:25:09;;;;;;;8.35;4.95;;;3.90;99.90;;;;;;5076774;28;20029;-60
2022/01/07 03:27:35;;;;;;;7.43;5.47;;;3.90;99.90;;;;;;5079303;28;20025;-60
2022/01/07 03:30:03;;;;;;;9.77;5.50;;;4.00;99.90;;;;;;5063549;28;20032;-60
2022/01/07 03:32:29;;;;;;;8.80;5.70;;;4.00;99.90;;;;;;5080821;28;20033;-61
2022/01/07 03:34:55;;;;;;;8.77;5.68;;;4.00;99.90;;;;;;5080722;28;20032;-60
2022/01/07 03:37:21;;;;;;;7.88;5.72;;;4.00;99.90;;;;;;5080173;28;20106;-60
2022/01/07 03:39:47;;;;;;;8.27;5.88;;;4.10;99.90;;;;;;5080694;28;20048;-60
2022/01/07 03:42:13;;;;;;;11.15;6.35;;;4.10;99.90;;;;;;5080799;28;20028;-60
2022/01/07 03:44:38;;;;;;;10.63;6.47;;;4.10;99.90;;;;;;5080145;28;20036;-60
2022/01/07 03:47:04;;;;;;;8.95;6.50;;;4.10;99.90;;;;;;5063197;28;20277;-60
2022/01/07 03:49:30;;;;;;;10.55;6.53;;;4.10;99.90;;;;;;5080467;28;20036;-59
2022/01/07 03:51:56;;;;;;;14.77;7.00;;;4.10;99.90;;;;;;5080888;28;20028;-61
2022/01/07 03:54:22;;;;;;;11.18;6.50;;;4.20;99.90;;;;;;5079705;28;20051;-60
2022/01/07 03:56:48;;;;;;;12.20;7.10;;;4.20;99.90;;;;;;5080355;28;20032;-61
2022/01/07 03:59:14;;;;;;;11.23;7.03;;;4.20;99.90;;;;;;5079475;28;20040;-60
2022/01/07 04:01:40;;;;;;;11.32;7.15;;;4.20;99.90;;;;;;5080244;28;20274;-62
2022/01/07 04:04:06;;;;;;;10.52;7.20;;;4.20;99.90;;;;;;5079373;28;20064;-61
2022/01/07 04:06:32;;;;;;;12.35;7.20;;;4.20;99.90;;;;;;5080174;28;20067;-61
2022/01/07 04:08:58;;;;;;;11.60;6.97;;;4.20;99.90;;;;;;5080080;28;20033;-61
2022/01/07 04:11:24;;;;;;;16.33;7.18;;;4.30;99.90;;;;;;5062645;28;20032;-61
2022/01/07 04:13:49;;;;;;;17.23;7.78;;;4.20;99.90;;;;;;5079931;28;20028;-61
2022/01/07 04:16:15;;;;;;;10.77;7.35;;;4.30;99.90;;;;;;5080549;28;20036;-61
2022/01/07 04:18:42;;;;;;;11.95;7.45;;;4.30;99.90;;;;;;5080120;28;20295;-61
2022/01/07 04:21:08;;;;;;;9.93;7.07;;;4.40;99.90;;;;;;5079870;28;20407;-62
2022/01/07 04:23:34;;;;;;;9.88;7.07;;;4.40;99.90;;;;;;5062634;28;20041;-61
2022/01/07 04:26:00;;;;;;;10.75;7.00;;;4.40;99.90;;;;;;5079857;28;20288;-62
2022/01/07 04:28:26;;;;;;;13.13;6.53;;;4.40;99.90;;;;;;5079160;28;20071;-60
2022/01/07 04:30:52;;;;;;;14.68;7.57;;;4.40;99.90;;;;;;5078891;28;20400;-60
2022/01/07 04:33:25;;;;;;;14.95;7.82;;;4.40;99.90;;;;;;5079622;28;20355;-61
2022/01/07 04:35:53;;;;;;;11.57;7.30;;;4.40;99.90;;;;;;5079679;28;20032;-60
2022/01/07 04:38:18;;;;;;;12.20;7.25;;;4.50;99.90;;;;;;5079069;28;20431;-60
2022/01/07 04:40:44;;;;;;;12.82;7.50;;;4.50;99.90;;;;;;5078876;28;20053;-61
2022/01/07 04:43:10;;;;;;;11.30;7.43;;;4.60;99.90;;;;;;5079393;28;20036;-61
2022/01/07 04:45:36;;;;;;;14.73;6.97;;;4.60;99.90;;;;;;5079465;28;20058;-61
2022/01/07 04:48:03;;;;;;;12.40;6.93;;;4.60;99.90;;;;;;5061801;28;20033;-61
2022/01/07 04:50:29;;;;;;;8.88;6.78;;;4.60;99.90;;;;;;5079163;28;20024;-61
2022/01/07 04:52:55;;;;;;;9.05;6.70;;;4.60;99.90;;;;;;5078859;28;20037;-61
2022/01/07 04:55:24;;;;;;;9.48;7.00;;;4.60;99.90;;;;;;5079251;28;20039;-61
2022/01/07 04:57:50;;;;;;;9.52;6.90;;;4.60;99.90;;;;;;5078251;28;20029;-61
2022/01/07 05:00:17;;;;;;;10.88;6.75;;;4.60;99.90;;;;;;5079061;28;20095;-61
2022/01/07 05:02:43;;;;;;;11.00;6.78;;;4.60;99.90;;;;;;5079375;28;20332;-61
2022/01/07 05:05:10;;;;;;;14.48;6.65;;;4.60;99.90;;;;;;5078245;28;20102;-61
2022/01/07 05:07:37;;;;;;;11.45;6.47;;;4.70;99.90;;;;;;5078910;28;20150;-61
2022/01/07 05:10:08;;;;;;;10.02;6.25;;;4.70;99.90;;;;;;5078841;28;20029;-61
2022/01/07 05:12:34;;;;;;;10.30;6.97;;;4.80;99.90;;;;;;5079284;28;20025;-60
2022/01/07 05:15:01;;;;;;;9.50;6.35;;;4.90;99.90;;;;;;5078051;28;20336;-61
2022/01/07 05:17:26;;;;;;;8.90;6.68;;;4.90;99.90;;;;;;5078630;28;20028;-61
2022/01/07 05:19:52;;;;;;;11.32;6.65;;;4.90;99.90;;;;;;5078702;28;20277;-61
2022/01/07 05:22:18;;;;;;;8.20;6.07;;;4.90;99.90;;;;;;5077845;28;20454;-61
2022/01/07 05:24:44;;;;;;;7.70;6.25;;;4.80;99.90;;;;;;5061239;28;20060;-60
2022/01/07 05:27:10;;;;;;;10.75;6.45;;;4.80;99.90;;;;;;5078537;28;20399;-61
2022/01/07 05:29:35;;;;;;;14.93;6.30;;;4.80;99.90;;;;;;5078421;28;20038;-60
2022/01/07 05:32:03;;;;;;;10.82;6.75;;;4.70;99.90;;;;;;5078445;28;20039;-62
2022/01/07 05:34:29;;;;;;;11.82;6.22;;;4.80;99.90;;;;;;5077791;28;20036;-61
2022/01/07 05:36:55;;;;;;;12.27;6.50;;;4.70;99.90;;;;;;5078345;28;20382;-60
2022/01/07 05:39:21;;;;;;;9.05;6.00;;;4.80;99.90;;;;;;5078202;28;20170;-60
2022/01/07 05:41:46;;;;;;;7.68;6.05;;;4.80;99.90;;;;;;5078395;28;20115;-61
2022/01/07 05:44:12;;;;;;;10.27;6.25;;;4.80;99.90;;;;;;5078216;28;20047;-60
2022/01/07 05:46:38;;;;;;;11.50;6.53;;;4.70;99.90;;;;;;5077578;28;20033;-61
2022/01/07 05:49:04;;;;;;;9.38;6.32;;;4.80;99.90;;;;;;5077053;28;20024;-61
2022/01/07 05:51:30;;;;;;;9.45;5.90;;;4.80;99.90;;;;;;5078388;28;20039;-61
2022/01/07 05:53:55;;;;;;;10.77;6.03;;;4.90;99.90;;;;;;5077965;28;20035;-61
2022/01/07 05:56:22;;;;;;;11.50;6.13;;;5.00;99.90;;;;;;5077923;28;20123;-62
2022/01/07 05:58:47;;;;;;;10.02;5.63;;;5.00;99.90;;;;;;5077879;28;20120;-61
2022/01/07 06:01:13;;;;;;;9.48;5.55;;;4.90;99.90;;;;;;5078083;28;20104;-61
2022/01/07 06:03:40;;;;;;;8.23;5.75;;;4.90;99.90;;;;;;5077763;28;20029;-62
2022/01/07 06:06:06;;;;;;;9.45;6.25;;;5.00;99.90;;;;;;5077105;28;20032;-61
2022/01/07 06:08:32;;;;;;;11.32;5.85;;;5.00;99.90;;;;;;5078029;28;20043;-61
2022/01/07 06:10:58;;;;;;;6.95;5.53;;;5.00;99.90;;;;;;5077657;28;20036;-62
2022/01/07 06:13:24;;;;;;;9.50;5.68;;;5.00;99.90;;;;;;5077888;28;20043;-62
2022/01/07 06:15:50;;;;;;;10.77;5.90;;;5.00;99.90;;;;;;5077291;28;20032;-67
2022/01/07 06:18:16;;;;;;;7.97;5.53;;;5.10;99.90;;;;;;5077195;28;20074;-63
2022/01/07 06:20:42;;;;;;;10.60;5.63;;;5.10;99.90;;;;;;5077432;28;20033;-62
2022/01/07 06:23:07;;;;;;;7.68;5.47;;;5.10;99.90;;;;;;5059912;28;20118;-62
2022/01/07 06:25:33;;;;;;;13.27;6.05;;;5.10;99.90;;;;;;5076685;28;20395;-61
2022/01/07 06:27:59;;;;;;;10.23;5.85;;;5.10;99.90;;;;;;5077372;28;20330;-62
2022/01/07 06:30:25;;;;;;;10.23;5.88;;;5.10;99.90;;;;;;5059946;28;20035;-61
2022/01/07 06:32:52;;;;;;;8.80;4.68;;;5.10;99.90;;;;;;5060349;28;20051;-61
2022/01/07 06:35:18;;;;;;;8.43;5.70;;;5.10;99.90;;;;;;5077188;28;20037;-61
2022/01/07 06:37:44;;;;;;;8.38;5.07;;;5.20;99.90;;;;;;5077062;28;20171;-61
2022/01/07 06:40:10;;;;;;;12.18;5.40;;;5.20;99.90;;;;;;5059950;28;20459;-62
2022/01/07 06:42:36;;;;;;;10.38;5.85;;;5.30;99.90;;;;;;5077075;28;20435;-62
2022/01/07 06:45:05;;;;;;;10.23;5.25;;;5.20;99.90;;;;;;5076706;28;20025;-61
2022/01/07 06:47:31;;;;;;;8.63;5.05;;;5.20;99.90;;;;;;5077533;28;20044;-62
2022/01/07 06:49:57;;;;;;;8.82;5.30;;;5.30;99.90;;;;;;5076159;28;20040;-62
2022/01/07 06:52:23;;;;;;;9.10;4.57;;;5.30;99.90;;;;;;5077005;28;20412;-62
2022/01/07 06:54:49;;;;;;;6.85;5.28;;;5.30;99.90;;;;;;5076952;28;20078;-62
2022/01/07 06:57:15;;;;;;;8.52;5.50;;;5.30;99.90;;;;;;5076294;28;20100;-62
2022/01/07 06:59:41;;;;;;;8.95;5.38;;;5.20;99.90;;;;;;5076820;28;20056;-62
2022/01/07 07:02:07;;;;;;;8.00;5.35;;;5.20;99.90;;;;;;5076983;28;20419;-61
2022/01/07 07:04:33;;;;;;;9.80;5.60;;;5.20;99.90;;;;;;5076917;28;20017;-61
2022/01/07 07:06:59;;;;;;;11.63;5.43;;;5.20;99.90;;;;;;5076833;28;20035;-62
2022/01/07 07:09:25;;;;;;;11.15;5.40;;;5.20;99.90;;;;;;5076699;28;20032;-62
2022/01/07 07:11:51;;;;;;;9.55;5.30;;;5.20;99.90;;;;;;5076086;28;20035;-62
2022/01/07 07:14:17;;;;;;;10.10;6.00;;;5.20;99.90;;;;;;5077300;28;20316;-60
2022/01/07 07:16:43;;;;;;;9.70;5.65;;;5.20;99.90;;;;;;5077237;28;20106;-62
2022/01/07 07:19:09;;;;;;;7.20;5.60;;;5.20;99.90;;;;;;5076653;28;20033;-61
2022/01/07 07:21:35;;;;;;;7.95;5.30;;;5.20;99.90;;;;;;5075853;28;20107;-62
2022/01/07 07:24:02;;;;;;;8.68;5.30;;;5.20;99.90;;;;;;5075751;28;20047;-62
2022/01/07 07:26:29;;;;;;;10.63;5.35;;;5.20;99.90;;;;;;5076680;28;20012;-61
2022/01/07 07:28:54;;;;;;;8.45;5.53;;;5.30;99.90;;;;;;5076022;28;20032;-61
2022/01/07 07:31:21;;;;;;;10.23;5.47;;;5.20;99.90;;;;;;5075934;28;20039;-62
2022/01/07 07:36:27;;;;;;;14.35;5.38;;;5.30;99.90;;;;;;5076015;28;20266;-62
2022/01/07 07:38:54;;;;;;;7.45;5.20;;;5.30;99.90;;;;;;5075946;28;20394;-61
2022/01/07 07:41:20;;;;;;;9.15;5.38;;;5.30;99.90;;;;;;5075839;28;20036;-61
2022/01/07 07:43:47;;;;;;;13.05;5.10;;;5.20;99.90;;;;;;5075665;28;20066;-62
2022/01/07 07:46:14;;;;;;;12.43;4.82;;;5.20;99.90;;;;;;5075837;28;20055;-62
2022/01/07 07:48:40;;;;;;;7.97;4.88;;;5.20;99.90;;;;;;5075735;28;20025;-62
2022/01/07 07:51:06;;;;;;;8.05;4.90;;;5.20;99.90;;;;;;5075666;28;20041;-61
2022/01/07 07:53:32;;;;;;;8.15;4.78;;;5.20;99.90;;;;;;5075618;28;20396;-62
2022/01/07 07:55:58;;;;;;;11.38;5.22;;;5.20;99.90;;;;;;5075573;28;20408;-62
2022/01/07 07:58:24;;;;;;;9.13;4.65;;;5.10;99.90;;;;;;5076458;28;20035;-61
2022/01/07 08:00:51;;;;;;;11.38;5.20;;;5.20;99.90;;;;;;5075813;28;20039;-62
2022/01/07 08:03:19;;;;;;;9.48;5.00;;;5.20;99.90;;;;;;5076311;28;20047;-61
2022/01/07 08:05:44;;;;;;;9.45;5.15;;;5.20;99.90;;;;;;5076364;28;20029;-62
2022/01/07 08:08:10;;;;;;;11.10;5.35;;;5.20;99.90;;;;;;5076139;28;20120;-61
2022/01/07 08:10:44;;;;;;;11.98;5.50;;;5.20;99.90;;;;;;5076394;28;20020;-62
2022/01/07 08:18:23;;;;;;;9.52;5.03;;;5.20;99.90;;;;;;5079985;28;20037;-63
2022/01/07 08:20:54;;;;;;;11.80;4.93;;;5.20;99.90;;;;;;5079836;28;20063;-62
2022/01/07 08:23:20;;;;;;;8.02;4.75;;;5.10;99.90;;;;;;5079849;28;20280;-62
2022/01/07 08:25:46;;;;;;;11.02;4.80;;;5.10;99.90;;;;;;5079825;28;20086;-61
2022/01/07 08:28:14;;;;;;;10.68;4.90;;;5.10;99.90;;;;;;5079741;28;20021;-61
2022/01/07 08:36:09;;;;;;;6.72;4.30;;;5.10;99.90;;;;;;5078816;28;20033;-61
2022/01/07 08:38:36;;;;;;;9.75;3.72;;;5.10;99.90;;;;;;5079375;28;20048;-62
2022/01/07 08:41:02;;;;;;;6.65;3.53;;;5.10;99.90;;;;;;5080141;28;20029;-63
2022/01/07 08:43:28;;;;;;;10.15;4.00;;;5.10;99.90;;;;;;5078831;28;20055;-61
2022/01/07 08:45:54;;;;;;;5.18;3.55;;;5.10;99.90;;;;;;5079341;28;20028;-62
2022/01/07 08:48:20;;;;;;;6.95;3.60;;;5.10;99.90;;;;;;5079530;28;20032;-62
2022/01/07 08:50:46;;;;;;;10.02;3.90;;;5.20;99.90;;;;;;5079199;28;20124;-64
2022/01/07 08:53:12;;;;;;;6.95;3.42;;;5.20;99.90;;;;;;5079094;28;20029;-61
2022/01/07 08:55:38;;;;;;;5.38;2.65;;;5.20;99.90;;;;;;5079177;28;20045;-62
2022/01/07 08:58:05;;;;;;;9.32;3.42;;;5.30;99.90;;;;;;5045238;28;20123;-61
2022/01/07 09:00:32;;;;;;;4.82;2.92;;;5.30;99.90;;;;;;5078385;28;20387;-61
2022/01/07 09:03:00;;;;;;;6.07;2.83;;;5.30;99.90;;;;;;5045165;28;20041;-63
2022/01/07 09:05:26;;;;;;;5.05;2.40;;;5.20;99.90;;;;;;5079188;28;20269;-63
2022/01/07 09:07:52;;;;;;;8.15;2.50;;;5.20;99.90;;;;;;5079388;28;20024;-62
2022/01/07 09:10:18;;;;;;;5.05;2.45;;;5.20;99.90;;;;;;5079527;28;20048;-63
2022/01/07 09:12:45;;;;;;;5.72;2.90;;;5.20;99.90;;;;;;5079027;28;20103;-62
2022/01/07 09:15:12;;;;;;;7.32;2.88;;;5.20;99.90;;;;;;5078264;28;20288;-62
2022/01/07 09:17:38;;;;;;;6.75;2.58;;;5.20;99.90;;;;;;5078852;28;20036;-61
2022/01/07 09:20:06;;;;;;;8.70;2.70;;;5.20;99.90;;;;;;5078764;28;20361;-62
2022/01/07 09:22:32;;;;;;;6.00;3.25;;;5.20;99.90;;;;;;5077733;28;20373;-63
2022/01/07 09:24:58;;;;;;;9.25;2.53;;;5.20;99.90;;;;;;5077561;28;20090;-62
2022/01/07 09:27:24;;;;;;;11.50;2.72;;;5.20;99.90;;;;;;5078632;28;20028;-62
2022/01/07 09:29:50;;;;;;;9.00;2.90;;;5.20;99.90;;;;;;5078634;28;20077;-61
2022/01/07 09:32:16;;;;;;;9.02;2.97;;;5.20;99.90;;;;;;5078592;28;20025;-62
2022/01/07 09:34:42;;;;;;;6.22;2.88;;;5.30;99.90;;;;;;5078567;28;20396;-63
2022/01/07 09:37:08;;;;;;;5.57;2.40;;;5.40;99.90;;;;;;5078327;28;20113;-62
2022/01/07 09:39:36;;;;;;;7.47;2.53;;;5.50;99.90;;;;;;5078688;28;20115;-62
2022/01/07 09:42:04;;;;;;;5.00;2.45;;;5.50;99.90;;;;;;5078399;28;20035;-62
2022/01/07 09:44:31;;;;;;;6.68;2.63;;;5.60;99.90;;;;;;5077427;28;20043;-62
2022/01/07 09:46:57;;;;;;;7.05;3.00;;;5.60;99.90;;;;;;5078307;28;20024;-61
2022/01/07 09:49:23;;;;;;;4.47;2.60;;;5.70;99.90;;;;;;5060774;28;20443;-62
2022/01/07 09:51:49;;;;;;;9.50;2.78;;;5.70;99.90;;;;;;5077424;28;20047;-62
2022/01/07 09:54:15;;;;;;;6.65;2.65;;;5.80;99.90;;;;;;5078054;28;20032;-61
2022/01/07 09:56:41;;;;;;;5.32;2.78;;;5.80;99.90;;;;;;5078138;28;20111;-62
2022/01/07 09:59:07;;;;;;;6.65;3.22;;;5.80;99.90;;;;;;5077312;28;20415;-61
2022/01/07 10:01:52;;;;;;;9.18;2.95;;;5.80;99.90;;;;;;5077362;28;20024;-62
2022/01/07 10:04:32;;;;;;;5.03;2.53;;;5.90;99.90;;;;;;5077158;28;20028;-60
2022/01/07 10:07:17;;;;;;;9.63;3.53;;;6.00;99.90;;;;;;5077149;28;20040;-62
2022/01/07 10:10:05;;;;;;;7.03;2.83;;;6.20;99.90;;;;;;5076908;28;20025;-62
2022/01/07 10:12:55;;;;;;;8.38;3.67;;;6.20;99.90;;;;;;5077679;28;20035;-60
2022/01/07 10:15:26;;;;;;;7.25;3.55;;;6.10;99.90;;;;;;5077768;28;20021;-61
2022/01/07 10:18:02;;;;;;;9.18;3.53;;;5.90;99.90;;;;;;5076907;28;20396;-63
2022/01/07 10:20:31;;;;;;;8.75;4.10;;;5.80;99.90;;;;;;5077660;28;20028;-62
2022/01/07 10:23:04;;;;;;;9.25;4.15;;;5.80;99.90;;;;;;5077535;28;20304;-61
2022/01/07 10:25:35;;;;;;;7.65;2.63;;;5.70;99.90;;;;;;5077428;28;20461;-61
2022/01/07 10:28:04;;;;;;;6.50;2.47;;;5.70;99.90;;;;;;5076973;28;20315;-61
2022/01/07 10:30:38;;;;;;;5.22;2.47;;;5.90;99.90;;;;;;5076731;28;20036;-62
2022/01/07 10:33:21;;;;;;;4.63;2.65;;;5.90;99.90;;;;;;5077360;28;20086;-62
2022/01/07 10:35:52;;;;;;;9.50;3.53;;;6.00;99.90;;;;;;5059596;28;20291;-62
2022/01/07 10:38:22;;;;;;;7.90;4.00;;;6.00;99.90;;;;;;5077187;28;20102;-62
2022/01/07 10:40:50;;;;;;;10.10;4.32;;;6.10;99.90;;;;;;5077365;28;20304;-62
2022/01/07 10:43:21;;;;;;;9.48;4.93;;;6.10;99.90;;;;;;5076727;28;20031;-62
2022/01/07 10:45:53;;;;;;;13.93;5.47;;;6.10;99.90;;;;;;5077172;28;20060;-62
2022/01/07 10:48:22;;;;;;;10.48;4.95;;;6.20;99.90;;;;;;5076301;28;20048;-62
2022/01/07 10:50:50;;;;;;;13.98;5.53;;;6.20;99.90;;;;;;5077157;28;20040;-63
2022/01/07 10:53:29;;;;;;;8.30;4.72;;;6.20;99.90;;;;;;5077059;28;20036;-62
2022/01/07 10:56:14;;;;;;;12.70;5.13;;;6.20;99.90;;;;;;5077091;28;20040;-62
2022/01/07 10:58:43;;;;;;;11.13;4.75;;;6.30;99.90;;;;;;5077026;28;20024;-62
2022/01/07 11:01:25;;;;;;;11.88;5.00;;;6.40;99.90;;;;;;5076461;28;20059;-63
2022/01/07 11:03:53;;;;;;;10.20;4.72;;;6.50;99.90;;;;;;5077071;28;20036;-62
2022/01/07 11:06:20;;;;;;;16.92;5.50;;;6.60;99.90;;;;;;5077267;28;20166;-63
2022/01/07 11:08:51;;;;;;;9.93;4.57;;;6.50;99.90;;;;;;5076855;28;20398;-61
2022/01/07 11:11:21;;;;;;;9.75;4.13;;;6.50;99.90;;;;;;5076962;28;20029;-63
2022/01/07 11:13:47;;;;;;;11.57;4.10;;;6.40;99.90;;;;;;5076563;28;20024;-63
2022/01/07 11:16:13;;;;;;;9.88;3.85;;;6.50;99.90;;;;;;5076255;28;20040;-62
2022/01/07 11:18:41;;;;;;;11.02;3.88;;;6.50;99.90;;;;;;5076746;28;20296;-63
2022/01/07 11:21:09;;;;;;;9.50;4.28;;;6.50;99.90;;;;;;5076801;28;20024;-63
2022/01/07 11:23:38;;;;;;;8.25;4.00;;;6.70;99.90;;;;;;5059479;28;20036;-64
2022/01/07 11:26:09;;;;;;;10.32;3.67;;;6.70;99.90;;;;;;5076572;28;20303;-62
2022/01/07 11:28:51;;;;;;;9.48;3.40;;;6.50;99.90;;;;;;5075893;28;20020;-63
2022/01/07 11:31:17;;;;;;;7.93;3.50;;;6.50;99.90;;;;;;5077045;28;20184;-63
2022/01/07 11:33:43;;;;;;;8.15;3.42;;;6.50;99.90;;;;;;5075894;28;20043;-63
2022/01/07 11:36:33;;;;;;;9.18;3.95;;;6.70;99.90;;;;;;5076740;28;20032;-63
2022/01/07 11:39:04;;;;;;;10.80;3.40;;;6.90;99.90;;;;;;5076553;28;20305;-63
2022/01/07 11:41:44;;;;;;;10.38;3.60;;;6.90;99.90;;;;;;5075854;28;20039;-63
2022/01/07 11:44:20;;;;;;;7.68;3.40;;;6.90;99.90;;;;;;5076471;28;20081;-63
2022/01/07 11:46:46;;;;;;;9.30;3.15;;;6.80;99.90;;;;;;5076625;28;20039;-63
2022/01/07 11:49:32;;;;;;;7.15;3.03;;;6.70;99.90;;;;;;5078831;28;20024;-62
2022/01/07 11:52:35;;;;;;;6.05;2.78;;;6.70;99.90;;;;;;5080422;28;20040;-62
2022/01/07 11:55:21;;;;;;;9.80;3.00;;;6.70;99.90;;;;;;5079921;28;20032;-62
2022/01/07 11:58:01;;;;;;;6.75;2.92;;;6.70;99.90;;;;;;5079594;28;20410;-62
2022/01/07 12:01:03;;;;;;;7.38;2.88;;;6.80;99.90;;;;;;5079487;28;20036;-62
2022/01/07 12:03:40;;;;;;;8.02;2.60;;;7.00;99.90;;;;;;5079157;28;20456;-62
2022/01/07 12:06:21;;;;;;;5.90;2.55;;;7.00;99.90;;;;;;5080284;28;20021;-63
2022/01/07 12:08:58;;;;;;;4.53;2.30;;;7.00;99.90;;;;;;5080056;28;20036;-63
2022/01/07 12:11:42;;;;;;;4.72;2.42;;;6.90;99.90;;;;;;5079293;28;20296;-63
2022/01/07 12:14:19;;;;;;;5.30;2.70;;;6.90;99.90;;;;;;5080031;28;20101;-62
2022/01/07 12:16:49;;;;;;;6.90;2.30;;;7.00;99.90;;;;;;5080000;28;20296;-63
2022/01/07 12:19:18;;;;;;;7.00;2.67;;;7.00;99.90;;;;;;5079075;28;20025;-63
2022/01/07 12:21:46;;;;;;;4.30;2.30;;;6.90;99.90;;;;;;5079227;28;20273;-63
2022/01/07 12:24:14;;;;;;;6.13;2.90;;;6.80;99.90;;;;;;5079767;28;20029;-63
2022/01/07 12:26:40;;;;;;;7.97;3.10;;;7.00;99.90;;;;;;5062709;28;20040;-64
2022/01/07 12:29:19;;;;;;;8.27;2.80;;;6.90;99.90;;;;;;5079002;28;20361;-63
2022/01/07 12:31:54;;;;;;;7.50;2.67;;;6.90;99.90;;;;;;5079823;28;20458;-63
2022/01/07 12:34:30;;;;;;;5.55;2.92;;;7.00;99.90;;;;;;5078960;28;20098;-64
2022/01/07 12:37:05;;;;;;;9.73;2.70;;;7.00;99.90;;;;;;5078509;28;20110;-62
2022/01/07 12:39:36;;;;;;;5.80;2.75;;;6.90;99.90;;;;;;5077737;28;20059;-63
2022/01/07 12:42:03;;;;;;;8.75;2.47;;;6.90;99.90;;;;;;5078900;28;20093;-63
2022/01/07 12:44:47;;;;;;;6.03;2.08;;;6.80;99.90;;;;;;5061355;28;20028;-63
2022/01/07 12:47:15;;;;;;;4.82;2.53;;;6.90;99.90;;;;;;5078879;28;20032;-60
2022/01/07 12:49:43;;;;;;;7.05;2.25;;;6.70;99.90;;;;;;5060865;28;20031;-63
2022/01/07 12:52:18;;;;;;;5.22;2.45;;;6.70;99.90;;;;;;5078225;28;20051;-66
2022/01/07 12:54:52;;;;;;;6.10;2.42;;;6.70;99.90;;;;;;5077559;28;20351;-63
2022/01/07 12:57:30;;;;;;;10.60;2.60;;;6.60;99.90;;;;;;5077307;28;20040;-64
2022/01/07 13:00:14;;;;;;;7.55;2.33;;;6.80;99.90;;;;;;5077230;28;20060;-62
2022/01/07 13:02:45;;;;;;;5.53;2.10;;;6.70;99.90;;;;;;5077213;28;20029;-61
2022/01/07 13:05:12;;;;;;;6.95;2.45;;;6.60;99.90;;;;;;5078365;28;20097;-62
2022/01/07 13:07:48;;;;;;;4.90;2.00;;;6.60;99.90;;;;;;5077984;28;20033;-63
2022/01/07 13:10:31;;;;;;;3.88;1.80;;;6.70;99.90;;;;;;5077969;28;20032;-62
2022/01/07 13:13:14;;;;;;;4.68;1.80;;;6.70;99.90;;;;;;5077632;28;20400;-63